Naval Submarine Base, Connecticut
Current Conditions -  °F | °C
As of 10:56 AM on Friday 24 Oct 2014 (Local Time) from KGON Reporting Station
Overcast Overcast  
Wind Chill: 51°   Ceiling: 1700
Heat Index: 51°   Visibility: 10mi
Dew Point: 46°   Wind: 17mph
Humidity: 83%   Direction: 340°NNW
Pressure: 29.73"   Gusts: 24mph
Location:  41.3499°N, 72.0759°W
Report Text: KGON 241456Z 34015G21KT 10SM OVC017 11/08 A2973 RMK AO2 SLP067 60000 T01060078 58002
Loading
Personal Weather Stations






























Interactive Weather Map
Tropical Storm Tracking
New forecast layout! Learn more

10-Day Weather Forecast

Advertisements
Track Severe Weather on mobile